Time;durP1;ratioP1;P1;durP2;ratioP2;P2;SDS_P1;SDS_P2;PMS_P1;PMS_P2;Temp;Humidity;BMP_temperature;BMP_pressure;BME280_temperature;BME280_humidity;BME280_pressure;Samples;Min_cycle;Max_cycle;Signal;HPM_P1;HPM_P2
2021/11/19 00:02:22;;;;;;;35.90;16.90;;;11.00;99.90;;;;;;5071994;28;20082;-73
2021/11/19 00:04:47;;;;;;;31.42;15.77;;;11.00;99.90;;;;;;5068953;28;20028;-73
2021/11/19 00:07:13;;;;;;;35.80;16.90;;;11.00;99.90;;;;;;5071057;28;20379;-73
2021/11/19 00:09:39;;;;;;;27.95;15.85;;;11.00;99.90;;;;;;5068295;28;20486;-73
2021/11/19 00:12:06;;;;;;;37.80;18.10;;;11.00;99.90;;;;;;5069803;28;20024;-73
2021/11/19 00:14:32;;;;;;;32.40;18.20;;;11.00;99.90;;;;;;5070030;28;20517;-73
2021/11/19 00:17:05;;;;;;;32.90;16.10;;;11.00;99.90;;;;;;5052662;28;20510;-74
2021/11/19 00:19:32;;;;;;;41.30;19.55;;;11.00;99.90;;;;;;5071032;28;20082;-73
2021/11/19 00:21:58;;;;;;;32.08;17.50;;;11.00;99.90;;;;;;5050946;28;20087;-73
2021/11/19 00:24:25;;;;;;;34.28;17.08;;;11.00;99.90;;;;;;5067549;28;20021;-73
2021/11/19 00:26:51;;;;;;;32.60;17.88;;;11.10;99.90;;;;;;5070991;28;20029;-73
2021/11/19 00:29:16;;;;;;;38.85;17.83;;;11.00;99.90;;;;;;5070641;28;20085;-73
2021/11/19 00:31:43;;;;;;;37.33;18.90;;;11.00;99.90;;;;;;5074810;28;20021;-73
2021/11/19 00:34:10;;;;;;;34.35;18.50;;;11.10;99.90;;;;;;5071398;28;20082;-73
2021/11/19 00:36:37;;;;;;;42.85;19.20;;;11.10;99.90;;;;;;5069149;28;20082;-73
2021/11/19 00:39:09;;;;;;;38.20;18.08;;;11.10;99.90;;;;;;5068507;28;20031;-73
2021/11/19 00:41:36;;;;;;;43.20;19.88;;;11.10;99.90;;;;;;5070516;28;20021;-73
2021/11/19 00:44:03;;;;;;;35.40;18.60;;;11.10;99.90;;;;;;5066337;28;20486;-73
2021/11/19 00:46:28;;;;;;;32.88;18.35;;;11.10;99.90;;;;;;5073958;28;20111;-73
2021/11/19 00:48:54;;;;;;;31.67;18.50;;;11.10;99.90;;;;;;5072927;28;20474;-73
2021/11/19 00:51:26;;;;;;;38.83;20.60;;;11.10;99.90;;;;;;5071528;28;20024;-73
2021/11/19 00:53:54;;;;;;;;;;;11.10;99.90;;;;;;5074252;28;20075;-73
2021/11/19 00:56:23;;;;;;;40.35;19.85;;;11.10;99.90;;;;;;5055395;28;19923;-73
2021/11/19 00:58:51;;;;;;;43.08;20.40;;;11.10;99.90;;;;;;5073078;28;20027;-73
2021/11/19 01:01:27;;;;;;;39.20;19.85;;;11.10;99.90;;;;;;5056079;28;20501;-72
2021/11/19 01:03:54;;;;;;;44.22;22.40;;;11.20;99.90;;;;;;5071422;28;20516;-73
2021/11/19 01:06:20;;;;;;;39.00;22.48;;;11.10;99.90;;;;;;5052269;28;20029;-73
2021/11/19 01:08:45;;;;;;;34.75;21.10;;;11.20;99.90;;;;;;5072705;28;20029;-73
2021/11/19 01:11:14;;;;;;;42.47;23.75;;;11.20;99.90;;;;;;5055327;28;20036;-73
2021/11/19 01:13:43;;;;;;;43.08;23.08;;;11.20;99.90;;;;;;5064020;28;20123;-73
2021/11/19 01:16:20;;;;;;;45.90;24.38;;;11.20;99.90;;;;;;5053180;28;20037;-73
2021/11/19 01:18:50;;;;;;;43.20;23.65;;;11.20;99.90;;;;;;5072323;28;20031;-73
2021/11/19 01:21:22;;;;;;;49.20;24.45;;;11.20;99.90;;;;;;5073535;28;20021;-73
2021/11/19 01:23:48;;;;;;;44.38;24.20;;;11.20;99.90;;;;;;5053317;28;20028;-73
2021/11/19 01:26:23;;;;;;;42.33;23.10;;;11.20;99.90;;;;;;5068384;28;20036;-73
2021/11/19 01:28:56;;;;;;;46.33;24.55;;;11.20;99.90;;;;;;5053422;28;20381;-74
2021/11/19 01:31:33;;;;;;;;;;;11.20;99.90;;;;;;5071417;28;20066;-73
2021/11/19 01:33:59;;;;;;;42.08;23.52;;;11.20;99.90;;;;;;5069547;28;19923;-73
2021/11/19 01:36:25;;;;;;;44.78;23.40;;;11.20;99.90;;;;;;5067487;28;20026;-73
2021/11/19 01:38:52;;;;;;;41.88;23.23;;;11.20;99.90;;;;;;5049310;28;20033;-73
2021/11/19 01:41:25;;;;;;;46.13;25.25;;;11.20;99.90;;;;;;5070150;28;20029;-73
2021/11/19 01:43:51;;;;;;;44.72;25.38;;;11.20;99.90;;;;;;5056597;28;20475;-73
2021/11/19 01:46:23;;;;;;;43.00;25.60;;;11.20;99.90;;;;;;5070745;28;20032;-73
2021/11/19 01:48:51;;;;;;;43.83;26.35;;;11.20;99.90;;;;;;5052460;28;20025;-73
2021/11/19 01:51:32;;;;;;;44.90;26.25;;;11.30;99.90;;;;;;5073059;28;20056;-73
2021/11/19 01:54:21;;;;;;;49.53;28.15;;;11.30;99.90;;;;;;5071786;28;20124;-73
2021/11/19 01:56:49;;;;;;;50.30;29.33;;;11.30;99.90;;;;;;5061753;28;20035;-73
2021/11/19 01:59:34;;;;;;;58.33;29.50;;;11.30;99.90;;;;;;5070748;28;20024;-73
2021/11/19 02:02:04;;;;;;;48.28;28.83;;;11.30;99.90;;;;;;5071686;28;20444;-73
2021/11/19 02:04:42;;;;;;;53.15;28.95;;;11.30;99.90;;;;;;5071486;28;20115;-73
2021/11/19 02:07:15;;;;;;;50.65;30.27;;;11.30;99.90;;;;;;5054736;28;20028;-73
2021/11/19 02:10:03;;;;;;;49.65;30.05;;;11.20;99.90;;;;;;5071788;28;20016;-73
2021/11/19 02:12:40;;;;;;;55.95;30.42;;;11.30;99.90;;;;;;5071385;28;20035;-73
2021/11/19 02:15:24;;;;;;;51.88;30.48;;;11.20;99.90;;;;;;5069293;28;20029;-73
2021/11/19 02:17:56;;;;;;;51.85;32.38;;;11.30;99.90;;;;;;5072801;28;20482;-73
2021/11/19 02:20:27;;;;;;;53.13;31.13;;;11.20;99.90;;;;;;5071871;28;20103;-73
2021/11/19 02:23:05;;;;;;;58.60;32.75;;;11.20;99.90;;;;;;5071743;28;20024;-73
2021/11/19 02:26:23;;;;;;;61.95;35.00;;;11.20;99.90;;;;;;5073805;28;20028;-73
2021/11/19 02:28:52;;;;;;;56.22;33.22;;;11.20;99.90;;;;;;5007556;28;20097;-73
2021/11/19 02:31:23;;;;;;;66.25;37.17;;;11.20;99.90;;;;;;5070324;28;20075;-73
2021/11/19 02:33:51;;;;;;;57.67;34.13;;;11.20;99.90;;;;;;5072425;28;20066;-73
2021/11/19 02:36:21;;;;;;;58.90;34.67;;;11.20;99.90;;;;;;5070073;28;20040;-73
2021/11/19 02:38:55;;;;;;;61.35;34.65;;;11.20;99.90;;;;;;5073481;28;20432;-73
2021/11/19 02:41:25;;;;;;;61.97;36.20;;;11.20;99.90;;;;;;5069654;28;20020;-73
2021/11/19 02:44:06;;;;;;;59.25;34.05;;;11.20;99.90;;;;;;5073428;28;20145;-72
2021/11/19 02:46:35;;;;;;;68.22;38.00;;;11.20;99.90;;;;;;5070271;28;20025;-73
2021/11/19 02:49:02;;;;;;;59.42;35.05;;;11.20;99.90;;;;;;5069555;28;20531;-73
2021/11/19 02:51:29;;;;;;;65.60;35.45;;;11.20;99.90;;;;;;5071329;28;20056;-73
2021/11/19 02:53:56;;;;;;;70.07;38.28;;;11.20;99.90;;;;;;5059460;28;20035;-73
2021/11/19 02:56:22;;;;;;;68.30;40.25;;;11.20;99.90;;;;;;5078226;28;20027;-73
2021/11/19 02:58:52;;;;;;;65.78;37.85;;;11.20;99.90;;;;;;5068797;28;20102;-73
2021/11/19 03:01:29;;;;;;;72.53;39.92;;;11.20;99.90;;;;;;5071775;28;20378;-73
2021/11/19 03:04:06;;;;;;;69.15;36.72;;;11.20;99.90;;;;;;5068133;28;20068;-73
2021/11/19 03:06:36;;;;;;;60.47;36.78;;;11.20;99.90;;;;;;5069506;28;20478;-73
2021/11/19 03:09:02;;;;;;;63.67;38.97;;;11.20;99.90;;;;;;5069078;28;20028;-73
2021/11/19 03:11:27;;;;;;;69.55;38.22;;;11.20;99.90;;;;;;5071374;28;20479;-73
2021/11/19 03:13:53;;;;;;;60.75;36.80;;;11.20;99.90;;;;;;5070085;28;20051;-73
2021/11/19 03:16:18;;;;;;;64.95;39.17;;;11.20;99.90;;;;;;5070756;28;20047;-73
2021/11/19 03:18:44;;;;;;;66.47;38.42;;;11.20;99.90;;;;;;5069722;28;20024;-73
2021/11/19 03:21:16;;;;;;;61.65;35.10;;;11.30;99.90;;;;;;5049875;28;20095;-73
2021/11/19 03:23:43;;;;;;;62.60;35.78;;;11.30;99.90;;;;;;5071840;28;20028;-73
2021/11/19 03:26:10;;;;;;;64.38;37.22;;;11.30;99.90;;;;;;5070295;28;20375;-73
2021/11/19 03:28:44;;;;;;;65.50;37.25;;;11.30;99.90;;;;;;5110887;27;20400;-74
2021/11/19 03:31:11;;;;;;;71.65;37.40;;;11.30;99.90;;;;;;5085373;28;20470;-73
2021/11/19 03:33:41;;;;;;;62.97;37.75;;;11.30;99.90;;;;;;5087769;28;20047;-74
2021/11/19 03:36:08;;;;;;;62.60;37.33;;;11.30;99.90;;;;;;5069663;28;20097;-74
2021/11/19 03:38:35;;;;;;;61.80;35.88;;;11.30;99.90;;;;;;5084639;28;20382;-74
2021/11/19 03:41:02;;;;;;;67.70;38.13;;;11.20;99.90;;;;;;5086755;28;20025;-73
2021/11/19 03:43:35;;;;;;;60.08;36.50;;;11.30;99.90;;;;;;5088490;28;20025;-73
2021/11/19 03:46:05;;;;;;;61.30;35.28;;;11.30;99.90;;;;;;5088202;28;20020;-74
2021/11/19 03:48:31;;;;;;;67.78;36.85;;;11.30;99.90;;;;;;5070196;28;20028;-74
2021/11/19 03:51:04;;;;;;;68.15;37.50;;;11.30;99.90;;;;;;5070814;28;20085;-74
2021/11/19 03:53:30;;;;;;;61.38;37.08;;;11.30;99.90;;;;;;5087828;28;20017;-74
2021/11/19 03:55:58;;;;;;;67.82;35.60;;;11.30;99.90;;;;;;5085672;28;20043;-73
2021/11/19 03:58:27;;;;;;;65.82;36.10;;;11.30;99.90;;;;;;5084590;28;20036;-74
2021/11/19 04:01:00;;;;;;;66.80;37.75;;;11.30;99.90;;;;;;5086917;28;20036;-73
2021/11/19 04:03:27;;;;;;;62.03;35.75;;;11.30;99.90;;;;;;5088561;28;20037;-73
2021/11/19 04:05:53;;;;;;;67.80;36.58;;;11.30;99.90;;;;;;5085265;28;20077;-74
2021/11/19 04:08:19;;;;;;;63.25;36.42;;;11.30;99.90;;;;;;5074688;28;20032;-74
2021/11/19 04:10:46;;;;;;;65.63;35.70;;;11.30;99.90;;;;;;5086130;28;20036;-74
2021/11/19 04:13:12;;;;;;;66.28;35.90;;;11.30;99.90;;;;;;5087886;28;20043;-74
2021/11/19 04:15:42;;;;;;;66.63;36.50;;;11.30;99.90;;;;;;5088400;28;20077;-74
2021/11/19 04:18:09;;;;;;;62.17;35.05;;;11.20;99.90;;;;;;5083479;28;20029;-74
2021/11/19 04:20:35;;;;;;;68.13;37.53;;;11.30;99.90;;;;;;5074654;28;20040;-74
2021/11/19 04:23:01;;;;;;;65.20;35.65;;;11.30;99.90;;;;;;5087011;28;20047;-73
2021/11/19 04:25:27;;;;;;;69.85;39.35;;;11.30;99.90;;;;;;5083243;28;20101;-73
2021/11/19 04:27:54;;;;;;;69.60;36.17;;;11.20;99.90;;;;;;5077119;28;20037;-72
2021/11/19 04:30:24;;;;;;;65.15;36.78;;;11.30;99.90;;;;;;5084816;28;20535;-72
2021/11/19 04:32:51;;;;;;;70.93;36.95;;;11.30;99.90;;;;;;5088181;28;20032;-72
2021/11/19 04:35:17;;;;;;;71.15;37.47;;;11.30;99.90;;;;;;5084192;28;20024;-72
2021/11/19 04:37:43;;;;;;;69.82;37.25;;;11.30;99.90;;;;;;5086139;28;20024;-72
2021/11/19 04:40:10;;;;;;;67.13;35.55;;;11.30;99.90;;;;;;5070879;28;20020;-73
2021/11/19 04:42:37;;;;;;;73.85;35.67;;;11.30;99.90;;;;;;5074422;28;20024;-72
2021/11/19 04:45:05;;;;;;;60.22;35.67;;;11.30;99.90;;;;;;5073661;28;20025;-73
2021/11/19 04:47:31;;;;;;;61.78;34.92;;;11.20;99.90;;;;;;5071408;28;20029;-72
2021/11/19 04:49:57;;;;;;;67.75;35.72;;;11.30;99.90;;;;;;5073074;28;20028;-73
2021/11/19 04:52:22;;;;;;;69.88;38.65;;;11.30;99.90;;;;;;5073827;28;20070;-73
2021/11/19 04:54:48;;;;;;;69.13;37.42;;;11.30;99.90;;;;;;5073751;28;20035;-72
2021/11/19 04:57:14;;;;;;;70.85;38.08;;;11.20;99.90;;;;;;5072195;28;20040;-73
2021/11/19 04:59:40;;;;;;;67.18;37.00;;;11.30;99.90;;;;;;5069332;28;20075;-73
2021/11/19 05:02:09;;;;;;;66.28;36.47;;;11.30;99.90;;;;;;5069869;28;20037;-72
2021/11/19 05:04:36;;;;;;;71.68;37.03;;;11.30;99.90;;;;;;5069311;28;20028;-73
2021/11/19 05:07:02;;;;;;;79.18;38.42;;;11.30;99.90;;;;;;5071203;28;20071;-73
2021/11/19 05:09:30;;;;;;;78.53;38.60;;;11.30;99.90;;;;;;5073499;28;20071;-73
2021/11/19 05:12:10;;;;;;;72.80;40.58;;;11.30;99.90;;;;;;5073631;28;20025;-72
2021/11/19 05:14:36;;;;;;;67.78;37.60;;;11.30;99.90;;;;;;5066705;28;20024;-73
2021/11/19 05:17:04;;;;;;;65.40;36.75;;;11.30;99.90;;;;;;5070607;28;20115;-72
2021/11/19 05:19:30;;;;;;;72.72;38.67;;;11.30;99.90;;;;;;5073128;28;20024;-73
2021/11/19 05:21:57;;;;;;;72.88;39.78;;;11.30;99.90;;;;;;5072082;28;20150;-73
2021/11/19 05:24:22;;;;;;;68.97;38.15;;;11.30;99.90;;;;;;5066605;28;20047;-73
2021/11/19 05:26:49;;;;;;;73.22;38.15;;;11.30;99.90;;;;;;5069097;28;20614;-72
2021/11/19 05:29:17;;;;;;;69.68;37.97;;;11.30;99.90;;;;;;5068756;28;20414;-73
2021/11/19 05:31:44;;;;;;;68.63;37.40;;;11.30;99.90;;;;;;5069848;28;20032;-72
2021/11/19 05:34:11;;;;;;;76.30;39.53;;;11.30;99.90;;;;;;5071234;28;20024;-73
2021/11/19 05:36:36;;;;;;;75.13;38.17;;;11.30;99.90;;;;;;5072582;28;20482;-72
2021/11/19 05:39:03;;;;;;;73.03;37.22;;;11.30;99.90;;;;;;5072715;28;20155;-73
2021/11/19 05:41:29;;;;;;;70.82;38.95;;;11.30;99.90;;;;;;5073422;28;20026;-73
2021/11/19 05:43:55;;;;;;;71.68;37.53;;;11.30;99.90;;;;;;5070906;28;20604;-73
2021/11/19 05:46:24;;;;;;;75.03;37.65;;;11.30;99.90;;;;;;5074169;28;20101;-72
2021/11/19 05:48:52;;;;;;;76.68;38.33;;;11.20;99.90;;;;;;5072834;28;20024;-73
2021/11/19 05:51:19;;;;;;;79.25;39.35;;;11.30;99.90;;;;;;5070987;28;20055;-73
2021/11/19 05:53:45;;;;;;;73.85;38.38;;;11.20;99.90;;;;;;5071624;28;20060;-73
2021/11/19 05:56:12;;;;;;;69.63;37.78;;;11.20;99.90;;;;;;5068127;28;20029;-73
2021/11/19 05:58:37;;;;;;;72.80;38.03;;;11.30;99.90;;;;;;5061642;28;20036;-73
2021/11/19 06:01:07;;;;;;;75.28;39.97;;;11.30;99.90;;;;;;5070846;28;20432;-73
2021/11/19 06:03:34;;;;;;;75.10;39.53;;;11.20;99.90;;;;;;5070963;28;20103;-73
2021/11/19 06:06:01;;;;;;;73.20;37.75;;;11.20;99.90;;;;;;5061065;28;20024;-73
2021/11/19 06:08:27;;;;;;;68.40;38.17;;;11.20;99.90;;;;;;5064181;28;20051;-73
2021/11/19 06:10:57;;;;;;;71.05;38.03;;;11.20;99.90;;;;;;5064431;28;20063;-73
2021/11/19 06:13:37;;;;;;;76.95;39.75;;;11.30;99.90;;;;;;5057383;28;20498;-74
2021/11/19 06:16:12;;;;;;;71.95;37.90;;;11.30;99.90;;;;;;5056313;28;20047;-73
2021/11/19 06:18:41;;;;;;;67.15;37.67;;;11.30;99.90;;;;;;5060359;28;20077;-73
2021/11/19 06:21:17;;;;;;;72.00;37.20;;;11.30;99.90;;;;;;5058981;28;20085;-73
2021/11/19 06:23:45;;;;;;;73.78;38.13;;;11.30;99.90;;;;;;5062364;28;20072;-73
2021/11/19 06:26:14;;;;;;;80.15;39.15;;;11.30;99.90;;;;;;5051822;28;20036;-73
2021/11/19 06:28:47;;;;;;;71.47;37.67;;;11.30;99.90;;;;;;5057163;28;20075;-73
2021/11/19 06:31:14;;;;;;;;;;;11.30;99.90;;;;;;5065149;28;20082;-75
2021/11/19 06:33:40;;;;;;;74.05;36.50;;;11.30;99.90;;;;;;5065980;28;19963;-74
2021/11/19 06:36:08;;;;;;;72.85;37.70;;;11.20;99.90;;;;;;5050424;28;20059;-76
2021/11/19 06:38:34;;;;;;;77.15;40.53;;;11.30;99.90;;;;;;5050512;28;20037;-74
2021/11/19 06:41:00;;;;;;;75.57;38.40;;;11.30;99.90;;;;;;5051019;28;20040;-75
2021/11/19 06:43:25;;;;;;;72.35;37.55;;;11.30;99.90;;;;;;5052805;28;20407;-73
2021/11/19 06:45:51;;;;;;;75.07;38.28;;;11.30;99.90;;;;;;5050760;28;20063;-74
2021/11/19 06:48:17;;;;;;;75.38;38.00;;;11.30;99.90;;;;;;5052620;28;20039;-73
2021/11/19 06:50:44;;;;;;;74.88;38.20;;;11.30;99.90;;;;;;5052433;28;20065;-74
2021/11/19 06:53:11;;;;;;;69.53;36.38;;;11.30;99.90;;;;;;5051560;28;20023;-75
2021/11/19 06:55:36;;;;;;;74.68;38.60;;;11.30;99.90;;;;;;5047654;28;20032;-74
2021/11/19 06:58:04;;;;;;;71.32;38.42;;;11.30;99.90;;;;;;5054000;28;20048;-75
2021/11/19 07:00:35;;;;;;;71.88;36.17;;;11.30;99.90;;;;;;5052132;28;20067;-74
2021/11/19 07:03:00;;;;;;;63.40;34.92;;;11.30;99.90;;;;;;5050419;28;20028;-74
2021/11/19 07:05:27;;;;;;;66.38;35.88;;;11.40;99.90;;;;;;5051011;28;20029;-75
2021/11/19 07:07:53;;;;;;;70.22;35.67;;;11.40;99.90;;;;;;5066307;28;20128;-74
2021/11/19 07:10:21;;;;;;;71.63;35.60;;;11.40;99.90;;;;;;5071673;28;20024;-74
2021/11/19 07:12:47;;;;;;;62.42;33.50;;;11.40;99.90;;;;;;5069011;28;20104;-74
2021/11/19 07:15:16;;;;;;;63.28;34.45;;;11.40;99.90;;;;;;5054871;28;20116;-74
2021/11/19 07:17:42;;;;;;;56.75;31.20;;;11.40;99.90;;;;;;5069773;28;20074;-74
2021/11/19 07:20:11;;;;;;;62.08;32.90;;;11.40;99.90;;;;;;5069283;28;20093;-74
2021/11/19 07:22:37;;;;;;;57.20;32.50;;;11.50;99.90;;;;;;5070338;28;20028;-74
2021/11/19 07:25:03;;;;;;;68.18;34.60;;;11.50;99.90;;;;;;5070407;28;20032;-74
2021/11/19 07:27:29;;;;;;;56.00;32.53;;;11.50;99.90;;;;;;5070707;28;20501;-74
2021/11/19 07:29:54;;;;;;;56.72;31.65;;;11.50;99.90;;;;;;5074671;28;20033;-74
2021/11/19 07:32:20;;;;;;;58.75;32.42;;;11.50;99.90;;;;;;5053104;28;20068;-74
2021/11/19 07:34:45;;;;;;;62.75;34.85;;;11.60;99.90;;;;;;5063426;28;20426;-74
2021/11/19 07:37:12;;;;;;;60.15;34.08;;;11.60;99.90;;;;;;5066263;28;20037;-74
2021/11/19 07:39:38;;;;;;;59.72;32.80;;;11.60;99.90;;;;;;5064842;28;20035;-73
2021/11/19 07:42:04;;;;;;;63.95;34.65;;;11.60;99.90;;;;;;5065893;28;20382;-72
2021/11/19 07:44:30;;;;;;;57.45;33.55;;;11.60;99.90;;;;;;5068593;28;20028;-72
2021/11/19 07:46:55;;;;;;;54.95;32.95;;;11.60;99.90;;;;;;5070417;28;20033;-73
2021/11/19 07:49:21;;;;;;;61.75;32.50;;;11.60;99.90;;;;;;5058876;28;20021;-73
2021/11/19 07:51:50;;;;;;;61.25;34.70;;;11.60;99.90;;;;;;5077223;28;20021;-74
2021/11/19 07:54:16;;;;;;;57.42;33.05;;;11.60;99.90;;;;;;5062263;28;20111;-73
2021/11/19 07:56:44;;;;;;;54.28;32.90;;;11.60;99.90;;;;;;5058389;28;20017;-74
2021/11/19 07:59:25;;;;;;;55.00;31.98;;;11.60;99.90;;;;;;5059538;28;20021;-74
2021/11/19 08:01:52;;;;;;;57.92;32.83;;;11.70;99.90;;;;;;5054707;28;20487;-74
2021/11/19 08:04:20;;;;;;;60.03;33.17;;;11.70;99.90;;;;;;5062748;28;20020;-73
2021/11/19 08:06:46;;;;;;;54.50;32.38;;;11.70;99.90;;;;;;5059313;28;20036;-73
2021/11/19 08:09:12;;;;;;;61.17;32.95;;;11.70;99.90;;;;;;5049846;28;20387;-72
2021/11/19 08:11:38;;;;;;;54.25;31.75;;;11.70;99.90;;;;;;5065228;28;20020;-73
2021/11/19 08:14:05;;;;;;;61.88;32.30;;;11.70;99.90;;;;;;5068252;28;20017;-72
2021/11/19 08:16:55;;;;;;;58.55;31.73;;;11.80;99.90;;;;;;5074733;28;20035;-73
2021/11/19 08:19:26;;;;;;;51.60;31.67;;;11.80;99.90;;;;;;5060496;28;20391;-72
2021/11/19 08:21:53;;;;;;;55.15;31.05;;;11.80;99.90;;;;;;5059998;28;20077;-73
2021/11/19 08:24:20;;;;;;;51.05;29.42;;;11.90;99.90;;;;;;5054845;28;20025;-72
2021/11/19 08:26:50;;;;;;;49.70;30.10;;;11.90;99.90;;;;;;5065294;28;20046;-72
2021/11/19 08:29:21;;;;;;;51.03;31.17;;;11.90;99.90;;;;;;5067414;28;20025;-73
2021/11/19 08:31:47;;;;;;;52.53;29.05;;;11.90;99.90;;;;;;5065224;28;20020;-72
2021/11/19 08:34:14;;;;;;;50.60;30.25;;;12.00;99.90;;;;;;5062652;28;20020;-72
2021/11/19 08:36:39;;;;;;;54.42;29.08;;;12.00;99.90;;;;;;5073601;28;20057;-73
2021/11/19 08:39:09;;;;;;;46.03;28.83;;;12.10;99.90;;;;;;5072825;28;20112;-72
2021/11/19 08:41:34;;;;;;;47.70;29.42;;;12.10;99.90;;;;;;5067717;28;20108;-72
2021/11/19 08:44:01;;;;;;;48.00;28.63;;;12.10;99.90;;;;;;5071135;28;20120;-73
2021/11/19 08:46:34;;;;;;;43.67;28.75;;;12.20;99.90;;;;;;5070414;28;20021;-73
2021/11/19 08:49:01;;;;;;;48.35;28.38;;;12.20;99.90;;;;;;5059541;28;20025;-74
2021/11/19 08:51:29;;;;;;;50.15;29.90;;;12.20;99.90;;;;;;5068470;28;20441;-74
2021/11/19 08:54:00;;;;;;;45.00;27.00;;;12.20;99.90;;;;;;5054043;28;20025;-72
2021/11/19 08:56:26;;;;;;;43.55;25.80;;;12.30;99.90;;;;;;5069319;28;20031;-72
2021/11/19 08:58:53;;;;;;;42.55;26.58;;;12.30;99.90;;;;;;5087793;28;20032;-73
2021/11/19 09:01:21;;;;;;;40.70;24.77;;;12.40;99.90;;;;;;5071372;28;20052;-73
2021/11/19 09:03:47;;;;;;;38.85;25.23;;;12.40;99.90;;;;;;5073062;28;20024;-73
2021/11/19 09:06:14;;;;;;;38.25;23.58;;;12.40;99.90;;;;;;5063762;28;20378;-73
2021/11/19 09:08:43;;;;;;;37.58;25.52;;;12.40;99.90;;;;;;5059915;28;20091;-74
2021/11/19 09:11:11;;;;;;;39.22;23.65;;;12.40;99.90;;;;;;5078456;28;20021;-74
2021/11/19 09:13:37;;;;;;;37.05;23.85;;;12.50;99.90;;;;;;5072287;28;20036;-73
2021/11/19 09:16:07;;;;;;;39.95;23.77;;;12.50;99.90;;;;;;5068358;28;20029;-72
2021/11/19 09:18:48;;;;;;;41.97;25.33;;;12.50;99.90;;;;;;5070867;28;20077;-72
2021/11/19 09:21:28;;;;;;;37.35;24.10;;;12.50;99.90;;;;;;5054258;28;20039;-73
2021/11/19 09:23:59;;;;;;;38.05;21.70;;;12.60;99.90;;;;;;5071245;28;20061;-73
2021/11/19 09:26:42;;;;;;;34.40;21.88;;;12.60;99.90;;;;;;5068067;28;20450;-72
2021/11/19 09:29:19;;;;;;;33.70;21.23;;;12.60;99.90;;;;;;5063694;28;20540;-74
2021/11/19 09:31:46;;;;;;;28.08;19.92;;;12.60;99.90;;;;;;5058951;28;20032;-73
2021/11/19 09:34:12;;;;;;;28.15;18.63;;;12.60;99.90;;;;;;5070033;28;20115;-73
2021/11/19 09:36:39;;;;;;;35.30;21.73;;;12.70;99.90;;;;;;5072985;28;20060;-72
2021/11/19 09:39:07;;;;;;;29.70;19.45;;;12.80;99.90;;;;;;5069911;28;20032;-72
2021/11/19 09:41:47;;;;;;;29.92;18.30;;;12.80;99.90;;;;;;5073539;28;20029;-72
2021/11/19 09:44:52;;;;;;;31.33;20.30;;;12.90;99.90;;;;;;5071568;28;20447;-72
2021/11/19 09:47:45;;;;;;;26.65;19.15;;;12.90;99.90;;;;;;5073019;28;20467;-73
2021/11/19 09:50:47;;;;;;;26.65;19.10;;;13.00;99.90;;;;;;5072278;28;20029;-72
2021/11/19 09:54:01;;;;;;;23.55;17.60;;;13.00;99.90;;;;;;5054011;28;20024;-72
2021/11/19 09:57:00;;;;;;;27.48;18.63;;;13.00;99.90;;;;;;5070947;28;20044;-73
2021/11/19 09:59:48;;;;;;;26.98;17.50;;;13.00;99.90;;;;;;5062428;28;20545;-72
2021/11/19 10:02:39;;;;;;;28.73;16.90;;;13.10;99.90;;;;;;5073067;28;20024;-73
2021/11/19 10:05:33;;;;;;;25.33;16.40;;;13.20;99.90;;;;;;5067918;28;20024;-72
2021/11/19 10:08:01;;;;;;;28.15;16.15;;;13.20;99.90;;;;;;5072132;28;20024;-73
2021/11/19 10:11:17;;;;;;;23.52;16.67;;;13.30;99.90;;;;;;5071472;28;20024;-73
2021/11/19 10:14:11;;;;;;;28.08;16.00;;;13.30;99.90;;;;;;5020811;28;20047;-72
2021/11/19 10:16:45;;;;;;;21.95;14.65;;;13.30;99.90;;;;;;5072936;28;20078;-73
2021/11/19 10:19:13;;;;;;;22.50;14.63;;;13.40;99.90;;;;;;5070241;28;20474;-72
2021/11/19 10:21:51;;;;;;;23.02;14.77;;;13.40;99.90;;;;;;5072245;28;20142;-73
2021/11/19 10:24:26;;;;;;;22.23;14.60;;;13.30;99.90;;;;;;5072465;28;20028;-73
2021/11/19 10:26:52;;;;;;;21.75;13.93;;;13.40;99.90;;;;;;5071718;28;20117;-73
2021/11/19 10:29:36;;;;;;;19.33;14.15;;;13.40;99.90;;;;;;5071629;28;20425;-73
2021/11/19 10:32:03;;;;;;;21.58;14.65;;;13.40;99.90;;;;;;5069483;28;20048;-73
2021/11/19 10:34:46;;;;;;;20.73;13.75;;;13.50;99.90;;;;;;5072539;28;20021;-73
2021/11/19 10:37:33;;;;;;;21.63;13.63;;;13.50;99.90;;;;;;5050853;28;20029;-73
2021/11/19 10:40:33;;;;;;;19.83;12.90;;;13.50;99.90;;;;;;5060838;28;20078;-72
2021/11/19 10:43:26;;;;;;;22.15;13.43;;;13.60;99.90;;;;;;5071556;28;20043;-72
2021/11/19 10:46:10;;;;;;;22.75;13.77;;;13.60;99.90;;;;;;5071112;28;20020;-72
2021/11/19 10:49:10;;;;;;;19.85;12.13;;;13.60;99.90;;;;;;5052171;28;20391;-73
2021/11/19 10:52:02;;;;;;;19.17;12.13;;;13.60;99.90;;;;;;5069403;28;20035;-72
2021/11/19 10:55:09;;;;;;;17.00;13.05;;;13.70;99.90;;;;;;5071486;28;20056;-72
2021/11/19 10:58:09;;;;;;;15.60;11.02;;;13.70;99.90;;;;;;5071702;28;20127;-72
2021/11/19 11:00:59;;;;;;;14.90;11.30;;;13.60;99.90;;;;;;5063028;28;20028;-72
2021/11/19 11:03:34;;;;;;;13.65;10.75;;;13.60;99.90;;;;;;5059902;28;20502;-74
2021/11/19 11:06:15;;;;;;;18.58;10.20;;;13.60;99.90;;;;;;5068331;28;20074;-74
2021/11/19 11:08:44;;;;;;;15.63;9.88;;;13.60;99.90;;;;;;5071340;28;20393;-73
2021/11/19 11:11:21;;;;;;;13.27;9.32;;;13.70;99.90;;;;;;5068861;28;20025;-74
2021/11/19 11:13:55;;;;;;;14.00;8.07;;;13.70;99.90;;;;;;5069025;28;20526;-74
2021/11/19 11:16:28;;;;;;;12.15;7.07;;;13.70;99.90;;;;;;5066637;28;20055;-73
2021/11/19 11:19:00;;;;;;;14.10;8.13;;;13.70;99.90;;;;;;5071028;28;20123;-73
2021/11/19 11:21:31;;;;;;;9.95;5.40;;;13.60;99.90;;;;;;5069192;28;20047;-72
2021/11/19 11:24:03;;;;;;;11.35;5.38;;;13.60;99.90;;;;;;5050137;28;20075;-73
2021/11/19 11:26:55;;;;;;;11.03;5.43;;;13.50;99.90;;;;;;5063139;28;20390;-73
2021/11/19 11:29:32;;;;;;;10.85;6.32;;;13.40;99.90;;;;;;5070404;28;20032;-73
2021/11/19 11:32:20;;;;;;;11.38;6.05;;;13.40;99.90;;;;;;5064801;28;20029;-74
2021/11/19 11:34:46;;;;;;;12.82;6.20;;;13.60;99.90;;;;;;5081176;28;20025;-74
2021/11/19 11:37:17;;;;;;;10.15;5.85;;;13.60;99.90;;;;;;5065078;28;20071;-72
2021/11/19 11:39:49;;;;;;;11.93;5.68;;;13.70;99.90;;;;;;5064188;28;20094;-72
2021/11/19 11:42:21;;;;;;;8.60;5.10;;;13.80;99.90;;;;;;5063536;28;20117;-72
2021/11/19 11:44:51;;;;;;;12.38;5.53;;;13.80;99.90;;;;;;5062384;28;20120;-73
2021/11/19 11:48:00;;;;;;;9.95;5.85;;;13.80;99.90;;;;;;5065569;28;20054;-72
2021/11/19 11:50:29;;;;;;;13.48;6.05;;;13.80;99.90;;;;;;5084212;28;20028;-73
2021/11/19 11:53:03;;;;;;;11.45;6.55;;;13.80;99.90;;;;;;5060366;28;20556;-74
2021/11/19 11:55:40;;;;;;;11.10;5.72;;;13.80;99.90;;;;;;5069036;28;20016;-73
2021/11/19 11:58:29;;;;;;;7.75;4.53;;;13.70;99.90;;;;;;5064699;28;20104;-74
2021/11/19 12:01:12;;;;;;;10.82;4.55;;;13.60;99.90;;;;;;5064559;28;20435;-74
2021/11/19 12:03:52;;;;;;;9.85;4.18;;;13.50;99.90;;;;;;5076829;28;20025;-74
2021/11/19 12:06:36;;;;;;;8.43;4.82;;;13.40;99.90;;;;;;5057978;28;20035;-74
2021/11/19 12:09:28;;;;;;;11.23;4.45;;;13.40;99.90;;;;;;5057525;28;20043;-74
2021/11/19 12:12:19;;;;;;;9.02;3.83;;;13.40;99.90;;;;;;5055163;28;20021;-74
2021/11/19 12:14:51;;;;;;;8.82;3.20;;;13.40;99.90;;;;;;5058247;28;20016;-74
2021/11/19 12:17:49;;;;;;;8.60;2.95;;;13.40;99.90;;;;;;5056879;28;20119;-72
2021/11/19 12:20:14;;;;;;;7.80;3.28;;;13.50;99.90;;;;;;5056754;28;20044;-74
2021/11/19 12:23:10;;;;;;;7.93;3.85;;;13.50;99.90;;;;;;5056606;28;20025;-74
2021/11/19 12:26:00;;;;;;;7.28;3.05;;;13.50;99.90;;;;;;5063574;28;20107;-75
2021/11/19 12:28:40;;;;;;;8.65;2.88;;;13.60;99.90;;;;;;5060132;28;20098;-74
2021/11/19 12:31:27;;;;;;;8.65;2.58;;;13.60;99.90;;;;;;5065553;28;20025;-74
2021/11/19 12:34:16;;;;;;;5.65;2.00;;;13.70;99.90;;;;;;5065710;28;20096;-74
2021/11/19 12:36:50;;;;;;;7.47;2.53;;;13.60;99.90;;;;;;5061309;28;20033;-72
2021/11/19 12:39:17;;;;;;;6.35;2.00;;;13.70;99.90;;;;;;5063781;28;20037;-72
2021/11/19 12:42:17;;;;;;;6.78;2.72;;;13.70;99.90;;;;;;5062627;28;20673;-72
2021/11/19 12:44:58;;;;;;;6.07;2.35;;;13.60;99.90;;;;;;5052678;28;20041;-73
2021/11/19 12:47:47;;;;;;;5.95;2.35;;;13.70;99.90;;;;;;5063225;28;20364;-72
2021/11/19 12:50:43;;;;;;;5.35;2.47;;;13.70;99.90;;;;;;5060324;28;20025;-73
2021/11/19 12:53:36;;;;;;;7.25;3.03;;;13.70;99.90;;;;;;5064004;28;20032;-74
2021/11/19 12:56:19;;;;;;;7.85;3.28;;;13.70;99.90;;;;;;5059969;28;20027;-74
2021/11/19 12:58:50;;;;;;;7.32;3.22;;;13.70;99.90;;;;;;5058957;28;20021;-73